createdAt,value
2022-08-26T00:02:12.814Z,4.00
2022-08-26T00:04:40.946Z,3.70
2022-08-26T00:07:09.041Z,4.10
2022-08-26T00:09:40.174Z,4.00
2022-08-26T00:12:12.261Z,4.70
2022-08-26T00:14:41.248Z,4.80
2022-08-26T00:17:09.812Z,4.30
2022-08-26T00:19:38.111Z,4.40
2022-08-26T00:22:06.413Z,4.50
2022-08-26T00:24:34.695Z,4.50
2022-08-26T00:27:02.559Z,4.40
2022-08-26T00:29:32.046Z,4.30
2022-08-26T00:32:04.173Z,4.00
2022-08-26T00:34:32.427Z,4.30
2022-08-26T00:37:00.548Z,4.20
2022-08-26T00:39:28.428Z,3.90
2022-08-26T00:41:56.705Z,4.10
2022-08-26T00:44:24.931Z,3.90
2022-08-26T00:47:03.264Z,4.50
2022-08-26T00:49:44.972Z,4.30
2022-08-26T00:52:18.075Z,3.90
2022-08-26T00:55:00.978Z,3.70
2022-08-26T00:57:31.549Z,4.30
2022-08-26T01:00:03.162Z,3.70
2022-08-26T01:02:31.066Z,4.30
2022-08-26T01:05:03.339Z,4.50
2022-08-26T01:07:34.725Z,4.60
2022-08-26T01:10:08.597Z,3.80
2022-08-26T01:12:42.685Z,4.10
2022-08-26T01:15:15.524Z,4.50
2022-08-26T01:17:43.832Z,4.40
2022-08-26T01:20:37.237Z,4.10
2022-08-26T01:23:08.673Z,4.10
2022-08-26T01:25:43.070Z,3.90
2022-08-26T01:28:17.372Z,4.40
2022-08-26T01:30:47.281Z,4.50
2022-08-26T01:33:19.392Z,4.10
2022-08-26T01:35:48.119Z,3.70
2022-08-26T01:38:18.382Z,4.30
2022-08-26T01:40:47.073Z,4.10
2022-08-26T01:43:23.116Z,4.70
2022-08-26T01:45:55.020Z,4.20
2022-08-26T01:48:28.816Z,4.40
2022-08-26T01:50:57.490Z,4.10
2022-08-26T01:53:27.107Z,4.20
2022-08-26T01:56:00.457Z,4.40
2022-08-26T01:58:36.397Z,4.30
2022-08-26T02:01:05.805Z,4.30
2022-08-26T02:03:38.796Z,4.30
2022-08-26T02:06:10.784Z,3.90
2022-08-26T02:08:43.783Z,4.40
2022-08-26T02:11:12.341Z,4.80
2022-08-26T02:13:44.239Z,4.00
2022-08-26T02:16:13.277Z,4.60
2022-08-26T02:18:42.932Z,4.60
2022-08-26T02:21:12.688Z,5.50
2022-08-26T02:23:41.230Z,6.70
2022-08-26T02:26:19.181Z,11.70
2022-08-26T02:28:56.782Z,17.50
2022-08-26T02:31:25.172Z,7.60
2022-08-26T02:33:53.354Z,6.00
2022-08-26T02:36:28.440Z,4.90
2022-08-26T02:38:57.386Z,4.60
2022-08-26T02:41:25.620Z,4.50
2022-08-26T02:43:53.443Z,4.60
2022-08-26T02:46:30.023Z,4.50
2022-08-26T02:48:58.723Z,4.40
2022-08-26T02:51:27.178Z,4.40
2022-08-26T02:53:55.034Z,4.90
2022-08-26T02:56:23.963Z,4.70
2022-08-26T02:58:52.050Z,4.50
2022-08-26T03:01:24.767Z,4.00
2022-08-26T03:03:53.696Z,4.40
2022-08-26T03:06:22.039Z,3.90
2022-08-26T03:08:50.300Z,4.30
2022-08-26T03:11:19.613Z,4.30
2022-08-26T03:13:47.615Z,4.60
2022-08-26T03:16:16.403Z,4.10
2022-08-26T03:18:44.394Z,3.90
2022-08-26T03:21:21.070Z,4.70
2022-08-26T03:23:49.691Z,4.50
2022-08-26T03:26:17.978Z,4.40
2022-08-26T03:29:04.335Z,4.30
2022-08-26T03:31:32.248Z,4.90
2022-08-26T03:34:00.247Z,4.20
2022-08-26T03:36:28.142Z,3.80
2022-08-26T03:38:57.723Z,4.40
2022-08-26T03:41:25.567Z,4.10
2022-08-26T03:43:53.432Z,4.60
2022-08-26T03:46:21.320Z,5.00
2022-08-26T03:48:49.438Z,4.30
2022-08-26T03:51:19.089Z,4.30
2022-08-26T03:53:48.341Z,4.70
2022-08-26T03:56:16.349Z,4.70
2022-08-26T03:58:44.883Z,4.90
2022-08-26T04:01:15.688Z,5.40
2022-08-26T04:04:00.527Z,4.20
2022-08-26T04:06:32.429Z,4.50
2022-08-26T04:09:04.294Z,4.40
2022-08-26T04:11:35.894Z,4.40
2022-08-26T04:14:11.171Z,4.70
2022-08-26T04:16:39.181Z,4.70
2022-08-26T04:19:08.753Z,4.80
2022-08-26T04:21:38.494Z,4.20
2022-08-26T04:24:12.005Z,4.50
2022-08-26T04:26:42.804Z,4.10
2022-08-26T04:29:15.561Z,4.20
2022-08-26T04:31:43.892Z,3.70
2022-08-26T04:34:11.924Z,4.00
2022-08-26T04:36:43.172Z,3.70
2022-08-26T04:39:12.575Z,4.40
2022-08-26T04:41:40.430Z,4.30
2022-08-26T04:44:08.334Z,4.50
2022-08-26T04:46:39.944Z,4.30
2022-08-26T04:49:13.230Z,4.00
2022-08-26T04:51:41.183Z,4.00
2022-08-26T04:56:42.738Z,4.30
2022-08-26T04:59:16.723Z,4.10
2022-08-26T05:01:48.688Z,4.20
2022-08-26T05:04:19.285Z,3.70
2022-08-26T05:06:49.664Z,4.20
2022-08-26T05:09:20.831Z,4.20
2022-08-26T05:11:52.217Z,3.80
2022-08-26T05:14:23.376Z,3.80
2022-08-26T05:16:52.322Z,4.00
2022-08-26T05:19:21.170Z,4.10
2022-08-26T05:21:49.553Z,3.90
2022-08-26T05:24:18.170Z,4.00
2022-08-26T05:26:47.339Z,3.80
2022-08-26T05:29:16.840Z,3.60
2022-08-26T05:31:44.940Z,4.00
2022-08-26T05:34:13.390Z,4.30
2022-08-26T05:36:42.110Z,3.70
2022-08-26T05:39:10.817Z,4.00
2022-08-26T05:41:41.838Z,4.00
2022-08-26T05:44:14.185Z,3.70
2022-08-26T05:46:44.828Z,4.10
2022-08-26T05:49:15.803Z,3.90
2022-08-26T05:51:47.511Z,3.90
2022-08-26T05:54:21.834Z,4.60
2022-08-26T05:56:51.914Z,3.90
2022-08-26T05:59:24.156Z,4.30
2022-08-26T06:01:55.071Z,3.90
2022-08-26T06:04:27.577Z,3.90
2022-08-26T06:06:58.674Z,3.80
2022-08-26T06:09:27.356Z,3.90
2022-08-26T06:11:56.141Z,3.60
2022-08-26T06:14:26.043Z,3.80
2022-08-26T06:16:55.038Z,3.60
2022-08-26T06:19:23.499Z,3.80
2022-08-26T06:21:54.666Z,4.50
2022-08-26T06:24:41.545Z,4.30
2022-08-26T06:27:13.783Z,4.30
2022-08-26T06:29:43.252Z,4.20
2022-08-26T06:32:11.629Z,4.40
2022-08-26T06:34:39.543Z,3.80
2022-08-26T06:37:08.923Z,3.80
2022-08-26T06:39:41.235Z,3.60
2022-08-26T06:42:11.813Z,4.00
2022-08-26T06:44:41.714Z,4.20
2022-08-26T06:47:12.655Z,4.00
2022-08-26T06:49:40.577Z,3.80
2022-08-26T06:52:08.575Z,4.40
2022-08-26T06:54:38.788Z,4.40
2022-08-26T06:57:06.858Z,3.80
2022-08-26T06:59:35.506Z,3.50
2022-08-26T07:02:04.035Z,3.70
2022-08-26T07:04:34.673Z,3.90
2022-08-26T07:07:03.859Z,3.70
2022-08-26T07:09:33.290Z,3.90
2022-08-26T07:12:02.047Z,4.10
2022-08-26T07:14:31.802Z,3.80
2022-08-26T07:17:01.394Z,4.20
2022-08-26T07:19:31.240Z,5.90
2022-08-26T07:22:03.435Z,6.90
2022-08-26T07:24:35.045Z,4.90
2022-08-26T07:27:06.002Z,4.10
2022-08-26T07:29:36.368Z,6.10
2022-08-26T07:32:05.129Z,4.00
2022-08-26T07:34:33.406Z,3.40
2022-08-26T07:37:02.213Z,3.80
2022-08-26T07:39:32.821Z,3.60
2022-08-26T07:42:07.600Z,4.50
2022-08-26T07:44:38.128Z,4.70
2022-08-26T07:47:10.058Z,3.90
2022-08-26T07:49:39.018Z,5.00
2022-08-26T07:52:08.743Z,6.70
2022-08-26T07:54:37.684Z,4.20
2022-08-26T07:57:09.300Z,3.80
2022-08-26T07:59:38.210Z,3.70
2022-08-26T08:02:06.653Z,3.90
2022-08-26T08:04:34.872Z,3.50
2022-08-26T08:07:02.795Z,4.00
2022-08-26T08:09:30.623Z,4.40
2022-08-26T08:11:58.426Z,5.40
2022-08-26T08:14:28.487Z,4.00
2022-08-26T08:16:56.701Z,4.70
2022-08-26T08:19:25.079Z,3.80
2022-08-26T08:22:06.899Z,4.80
2022-08-26T08:24:50.012Z,4.70
2022-08-26T08:27:23.733Z,4.40
2022-08-26T08:29:57.269Z,5.20
2022-08-26T08:32:25.094Z,3.50
2022-08-26T08:34:53.507Z,3.30
2022-08-26T08:37:21.781Z,3.60
2022-08-26T08:39:50.218Z,3.60
2022-08-26T08:42:43.188Z,3.40
2022-08-26T08:45:34.502Z,3.60
2022-08-26T08:48:11.780Z,3.20
2022-08-26T08:50:45.809Z,5.30
2022-08-26T08:53:18.912Z,4.20
2022-08-26T08:56:23.827Z,4.10
2022-08-26T08:58:56.798Z,3.50
2022-08-26T09:01:28.245Z,3.70
2022-08-26T09:04:17.266Z,4.20
2022-08-26T09:06:48.700Z,3.00
2022-08-26T09:09:29.382Z,3.90
2022-08-26T09:11:58.883Z,3.00
2022-08-26T09:14:28.080Z,3.50
2022-08-26T09:17:08.646Z,3.70
2022-08-26T09:19:49.573Z,4.10
2022-08-26T09:22:30.123Z,3.60
2022-08-26T09:24:58.199Z,3.30
2022-08-26T09:27:50.480Z,3.10
2022-08-26T09:30:33.090Z,4.10
2022-08-26T09:33:10.064Z,4.10
2022-08-26T09:35:45.624Z,3.20
2022-08-26T09:38:26.786Z,4.00
2022-08-26T09:41:08.386Z,3.30
2022-08-26T09:43:37.086Z,4.00
2022-08-26T09:46:19.467Z,3.90
2022-08-26T09:48:48.250Z,4.30
2022-08-26T09:51:23.715Z,4.70
2022-08-26T09:53:59.336Z,3.40
2022-08-26T09:56:36.151Z,3.80
2022-08-26T09:59:08.432Z,4.30
2022-08-26T10:01:42.719Z,4.70
2022-08-26T10:04:30.895Z,3.70
2022-08-26T10:07:00.891Z,3.30
2022-08-26T10:09:33.865Z,3.40
2022-08-26T10:12:10.985Z,3.50
2022-08-26T10:15:03.813Z,3.20
2022-08-26T10:17:37.117Z,3.30
2022-08-26T10:20:23.533Z,3.20
2022-08-26T10:23:06.265Z,4.10
2022-08-26T10:25:53.737Z,3.50
2022-08-26T10:28:48.755Z,2.50
2022-08-26T10:31:27.804Z,4.60
2022-08-26T10:34:00.179Z,3.50
2022-08-26T10:37:15.779Z,3.30
2022-08-26T10:40:00.831Z,3.50
2022-08-26T10:42:58.137Z,4.40
2022-08-26T10:45:28.497Z,3.70
2022-08-26T10:47:59.911Z,3.00
2022-08-26T10:50:34.443Z,2.80
2022-08-26T10:53:07.591Z,3.40
2022-08-26T10:55:48.225Z,3.20
2022-08-26T10:58:45.569Z,3.60
2022-08-26T11:01:43.043Z,4.20
2022-08-26T11:04:40.870Z,3.90
2022-08-26T11:07:31.770Z,3.20
2022-08-26T11:10:07.534Z,4.10
2022-08-26T11:12:36.114Z,2.80
2022-08-26T11:18:02.168Z,3.00
2022-08-26T11:20:31.663Z,3.10
2022-08-26T11:23:22.508Z,4.10
2022-08-26T11:25:56.099Z,3.20
2022-08-26T11:28:37.008Z,3.10
2022-08-26T11:31:10.270Z,2.90
2022-08-26T11:33:44.209Z,3.20
2022-08-26T11:36:37.504Z,4.00
2022-08-26T11:39:29.143Z,3.30
2022-08-26T11:42:17.085Z,2.90
2022-08-26T11:44:49.688Z,4.10
2022-08-26T11:47:27.360Z,2.80
2022-08-26T11:50:07.837Z,3.60
2022-08-26T11:52:35.915Z,3.40
2022-08-26T11:55:06.964Z,2.70
2022-08-26T11:57:44.743Z,2.50
2022-08-26T12:00:33.769Z,4.30
2022-08-26T12:03:07.640Z,4.20
2022-08-26T12:05:42.544Z,3.50
2022-08-26T12:08:14.286Z,3.50
2022-08-26T12:10:42.651Z,3.50
2022-08-26T12:13:22.805Z,3.10
2022-08-26T12:15:56.813Z,3.30
2022-08-26T12:18:30.227Z,3.10
2022-08-26T12:21:12.278Z,2.70
2022-08-26T12:23:52.356Z,3.00
2022-08-26T12:29:00.445Z,3.10
2022-08-26T12:31:35.284Z,2.60
2022-08-26T12:34:07.402Z,3.10
2022-08-26T12:36:54.744Z,3.60
2022-08-26T12:39:28.791Z,3.60
2022-08-26T12:41:59.143Z,3.10
2022-08-26T12:44:53.707Z,3.20
2022-08-26T12:47:42.613Z,2.90
2022-08-26T12:50:19.723Z,3.10
2022-08-26T12:53:10.537Z,3.30
2022-08-26T12:55:51.676Z,3.50
2022-08-26T12:58:38.277Z,3.60
2022-08-26T13:01:09.286Z,3.30
2022-08-26T13:03:46.459Z,3.60
2022-08-26T13:06:23.557Z,3.20
2022-08-26T13:09:25.423Z,3.80
2022-08-26T13:11:53.192Z,3.20
2022-08-26T13:14:23.899Z,3.30
2022-08-26T13:16:53.072Z,3.20
2022-08-26T13:19:25.499Z,3.10
2022-08-26T13:21:57.004Z,3.70
2022-08-26T13:24:35.089Z,3.20
2022-08-26T13:27:08.298Z,3.40
2022-08-26T13:29:38.133Z,3.30
2022-08-26T13:32:08.013Z,3.50
2022-08-26T13:34:37.960Z,3.60
2022-08-26T13:37:06.415Z,3.60
2022-08-26T13:39:34.439Z,3.60
2022-08-26T13:42:02.342Z,3.30
2022-08-26T13:44:30.133Z,3.20
2022-08-26T13:46:57.947Z,4.20
2022-08-26T13:49:25.770Z,3.30
2022-08-26T13:51:53.642Z,3.80
2022-08-26T13:54:22.135Z,3.40
2022-08-26T13:56:50.003Z,2.90
2022-08-26T13:59:17.859Z,3.20
2022-08-26T14:01:45.721Z,3.00
2022-08-26T14:04:13.618Z,3.10
2022-08-26T14:06:42.177Z,3.00
2022-08-26T14:09:11.432Z,3.00
2022-08-26T14:11:50.897Z,3.20
2022-08-26T14:14:23.153Z,3.10
2022-08-26T14:16:59.241Z,3.20
2022-08-26T14:19:31.552Z,3.50
2022-08-26T14:22:00.923Z,3.60
2022-08-26T14:24:30.289Z,2.60
2022-08-26T14:26:58.806Z,3.10
2022-08-26T14:29:27.064Z,3.20
2022-08-26T14:31:57.695Z,4.40
2022-08-26T14:34:28.799Z,3.60
2022-08-26T14:36:56.813Z,3.20
2022-08-26T14:39:25.149Z,2.90
2022-08-26T14:41:56.549Z,3.00
2022-08-26T14:44:31.312Z,2.80
2022-08-26T14:47:01.517Z,3.00
2022-08-26T14:49:31.270Z,3.00
2022-08-26T14:51:59.816Z,3.30
2022-08-26T14:54:29.553Z,3.20
2022-08-26T14:57:07.238Z,3.20
2022-08-26T14:59:43.579Z,3.70
2022-08-26T15:02:25.260Z,3.80
2022-08-26T15:05:02.937Z,2.80
2022-08-26T15:07:31.181Z,2.90
2022-08-26T15:09:59.995Z,3.50
2022-08-26T15:12:27.838Z,3.30
2022-08-26T15:14:55.932Z,3.60
2022-08-26T15:17:24.284Z,3.80
2022-08-26T15:19:52.892Z,2.90
2022-08-26T15:22:21.173Z,2.80
2022-08-26T15:24:51.742Z,3.10
2022-08-26T15:27:21.893Z,4.00
2022-08-26T15:29:50.212Z,3.70
2022-08-26T15:32:18.863Z,3.20
2022-08-26T15:34:47.272Z,2.90
2022-08-26T15:37:15.344Z,3.00
2022-08-26T15:39:44.021Z,4.10
2022-08-26T15:42:12.192Z,3.30
2022-08-26T15:44:45.001Z,3.30
2022-08-26T15:47:13.246Z,3.20
2022-08-26T15:49:41.561Z,3.60
2022-08-26T15:52:09.898Z,2.90
2022-08-26T15:54:38.106Z,3.30
2022-08-26T15:57:09.511Z,3.60
2022-08-26T15:59:40.156Z,3.50
2022-08-26T16:02:08.616Z,3.10
2022-08-26T16:04:37.134Z,3.40
2022-08-26T16:07:05.326Z,3.30
2022-08-26T16:09:33.561Z,4.00
2022-08-26T16:12:01.564Z,3.10
2022-08-26T16:14:30.136Z,3.20
2022-08-26T16:16:58.217Z,3.20
2022-08-26T16:19:26.098Z,3.30
2022-08-26T16:21:54.446Z,3.00
2022-08-26T16:24:25.910Z,3.30
2022-08-26T16:26:55.590Z,2.90
2022-08-26T16:29:24.785Z,2.80
2022-08-26T16:31:54.780Z,3.00
2022-08-26T16:36:51.110Z,3.30
2022-08-26T16:39:19.243Z,3.30
2022-08-26T16:41:47.155Z,3.00
2022-08-26T16:44:15.156Z,3.00
2022-08-26T16:46:43.825Z,3.00
2022-08-26T16:49:12.326Z,2.90
2022-08-26T16:51:40.515Z,3.00
2022-08-26T16:54:09.025Z,3.00
2022-08-26T16:56:37.829Z,2.70
2022-08-26T16:59:09.608Z,3.60
2022-08-26T17:01:37.741Z,3.20
2022-08-26T17:04:05.713Z,2.90
2022-08-26T17:06:34.369Z,3.00
2022-08-26T17:09:02.296Z,3.00
2022-08-26T17:11:30.925Z,3.50
2022-08-26T17:13:59.488Z,3.30
2022-08-26T17:16:27.613Z,3.50
2022-08-26T17:18:57.578Z,3.20
2022-08-26T17:21:29.300Z,3.40
2022-08-26T17:23:57.235Z,3.40
2022-08-26T17:26:26.375Z,3.80
2022-08-26T17:28:54.921Z,3.70
2022-08-26T17:31:23.759Z,3.80
2022-08-26T17:33:53.859Z,3.60
2022-08-26T17:36:27.993Z,4.90
2022-08-26T17:38:58.533Z,5.10
2022-08-26T17:41:27.111Z,4.30
2022-08-26T17:43:55.903Z,4.60
2022-08-26T17:46:24.189Z,5.20
2022-08-26T17:48:52.393Z,4.60
2022-08-26T17:51:22.992Z,5.40
2022-08-26T17:53:51.923Z,4.50
2022-08-26T17:56:26.087Z,4.90
2022-08-26T17:58:56.855Z,4.70
2022-08-26T18:01:27.105Z,5.00
2022-08-26T18:06:30.813Z,4.20
2022-08-26T18:09:00.599Z,4.80
2022-08-26T18:11:29.798Z,5.00
2022-08-26T18:13:58.453Z,4.80
2022-08-26T18:16:27.326Z,4.70
2022-08-26T18:18:55.824Z,4.60
2022-08-26T18:21:26.705Z,4.60
2022-08-26T18:23:55.892Z,4.60
2022-08-26T18:26:25.974Z,4.60
2022-08-26T18:28:54.019Z,5.50
2022-08-26T18:31:22.260Z,5.40
2022-08-26T18:33:50.974Z,5.50
2022-08-26T18:36:24.759Z,6.10
2022-08-26T18:38:54.147Z,6.20
2022-08-26T18:41:24.574Z,6.40
2022-08-26T18:43:54.137Z,5.90
2022-08-26T18:46:27.030Z,7.20
2022-08-26T18:48:56.919Z,6.90
2022-08-26T18:51:29.674Z,7.30
2022-08-26T18:53:59.761Z,7.00
2022-08-26T18:56:28.645Z,6.60
2022-08-26T18:58:56.701Z,6.80
2022-08-26T19:01:27.700Z,6.60
2022-08-26T19:03:57.793Z,6.50
2022-08-26T19:06:27.263Z,6.10
2022-08-26T19:08:57.924Z,5.90
2022-08-26T19:11:31.746Z,5.50
2022-08-26T19:14:02.130Z,5.60
2022-08-26T19:16:30.797Z,5.10
2022-08-26T19:19:01.071Z,4.80
2022-08-26T19:21:29.844Z,4.60
2022-08-26T19:24:00.187Z,5.20
2022-08-26T19:28:56.413Z,4.70
2022-08-26T19:31:24.253Z,4.80
2022-08-26T19:33:52.327Z,4.70
2022-08-26T19:36:23.752Z,5.00
2022-08-26T19:38:52.499Z,4.50
2022-08-26T19:41:36.945Z,5.00
2022-08-26T19:44:09.790Z,4.50
2022-08-26T19:49:11.856Z,4.90
2022-08-26T19:51:40.056Z,5.10
2022-08-26T19:54:07.971Z,5.30
2022-08-26T19:56:36.572Z,5.20
2022-08-26T19:59:04.680Z,5.10
2022-08-26T20:01:32.609Z,4.90
2022-08-26T20:04:01.236Z,5.40
2022-08-26T20:06:29.406Z,4.90
2022-08-26T20:08:57.800Z,5.10
2022-08-26T20:11:25.992Z,5.30
2022-08-26T20:13:54.148Z,4.40
2022-08-26T20:16:22.260Z,5.00
2022-08-26T20:19:09.007Z,5.00
2022-08-26T20:21:39.895Z,4.50
2022-08-26T20:24:11.676Z,5.60
2022-08-26T20:26:42.855Z,10.40
2022-08-26T20:29:16.541Z,13.10
2022-08-26T20:31:45.765Z,12.90
2022-08-26T20:34:16.693Z,8.20
2022-08-26T20:36:46.566Z,7.90
2022-08-26T20:39:15.639Z,6.60
2022-08-26T20:41:44.111Z,6.50
2022-08-26T20:44:13.374Z,6.10
2022-08-26T20:46:41.752Z,5.40
2022-08-26T20:49:10.026Z,4.90
2022-08-26T20:51:38.525Z,5.10
2022-08-26T20:54:07.124Z,5.20
2022-08-26T20:56:36.149Z,6.00
2022-08-26T20:59:06.936Z,10.20
2022-08-26T21:01:37.261Z,10.00
2022-08-26T21:04:13.995Z,7.10
2022-08-26T21:06:49.404Z,5.70
2022-08-26T21:09:23.235Z,4.50
2022-08-26T21:11:52.771Z,4.50
2022-08-26T21:14:23.096Z,4.50
2022-08-26T21:16:54.311Z,4.70
2022-08-26T21:19:22.863Z,4.30
2022-08-26T21:21:50.997Z,4.30
2022-08-26T21:24:19.372Z,4.00
2022-08-26T21:26:47.962Z,4.40
2022-08-26T21:29:16.453Z,4.20
2022-08-26T21:31:46.743Z,4.60
2022-08-26T21:34:19.715Z,4.40
2022-08-26T21:36:47.921Z,4.50
2022-08-26T21:39:16.816Z,4.50
2022-08-26T21:41:45.484Z,4.50
2022-08-26T21:44:15.226Z,4.20
2022-08-26T21:46:44.730Z,4.30
2022-08-26T21:49:15.793Z,4.80
2022-08-26T21:51:47.099Z,4.00
2022-08-26T21:54:18.062Z,4.10
2022-08-26T21:56:47.324Z,4.30
2022-08-26T21:59:17.933Z,4.00
2022-08-26T22:01:46.554Z,5.90
2022-08-26T22:04:16.250Z,5.70
2022-08-26T22:06:50.701Z,5.30
2022-08-26T22:09:25.138Z,5.30
2022-08-26T22:11:54.244Z,4.80
2022-08-26T22:14:22.532Z,4.40
2022-08-26T22:16:51.065Z,3.90
2022-08-26T22:19:21.145Z,3.90
2022-08-26T22:21:54.193Z,3.40
2022-08-26T22:26:52.794Z,3.90
2022-08-26T22:29:21.378Z,4.00
2022-08-26T22:31:49.427Z,3.40
2022-08-26T22:34:19.603Z,3.90
2022-08-26T22:36:49.446Z,7.80
2022-08-26T22:39:21.151Z,18.10
2022-08-26T22:41:49.499Z,24.50
2022-08-26T22:44:18.964Z,20.20
2022-08-26T22:46:48.299Z,16.50
2022-08-26T22:49:17.328Z,15.70
2022-08-26T22:51:46.271Z,11.70
2022-08-26T22:54:15.207Z,8.00
2022-08-26T22:56:45.224Z,4.10
2022-08-26T22:59:14.168Z,4.00
2022-08-26T23:01:44.284Z,3.90
2022-08-26T23:04:12.498Z,3.70
2022-08-26T23:06:47.678Z,3.80
2022-08-26T23:09:18.950Z,4.20
2022-08-26T23:14:18.443Z,3.80
2022-08-26T23:16:47.403Z,4.20
2022-08-26T23:19:19.278Z,3.80
2022-08-26T23:21:48.858Z,3.80
2022-08-26T23:24:17.390Z,4.50
2022-08-26T23:26:45.825Z,4.30
2022-08-26T23:29:16.074Z,3.90
2022-08-26T23:34:32.393Z,3.80
2022-08-26T23:37:01.928Z,3.50
2022-08-26T23:39:32.896Z,3.40
2022-08-26T23:42:02.062Z,4.00
2022-08-26T23:44:32.269Z,3.70
2022-08-26T23:47:00.758Z,4.20
2022-08-26T23:49:29.475Z,3.90
2022-08-26T23:52:16.470Z,4.20
2022-08-26T23:54:45.561Z,3.80
2022-08-26T23:57:13.390Z,4.10
2022-08-26T23:59:42.345Z,3.70
